createdAt,value
2017-04-22T00:00:46.210Z,94.08
2017-04-22T00:01:55.494Z,93.7
2017-04-22T00:03:04.442Z,93.6
2017-04-22T00:04:13.389Z,94.27
2017-04-22T00:05:22.649Z,93.51
2017-04-22T00:06:31.599Z,94.08
2017-04-22T00:07:40.547Z,94.84
2017-04-22T00:08:49.497Z,94.84
2017-04-22T00:09:58.456Z,94.65
2017-04-22T00:11:07.744Z,93.98
2017-04-22T00:12:16.712Z,93.6
2017-04-22T00:13:25.665Z,93.41
2017-04-22T00:14:34.650Z,93.6
2017-04-22T00:15:43.599Z,93.13
2017-04-22T00:16:52.809Z,93.6
2017-04-22T00:18:01.760Z,94.84
2017-04-22T00:19:10.801Z,93.7
2017-04-22T00:20:19.765Z,93.41
2017-04-22T00:21:28.713Z,94.37
2017-04-22T00:22:37.993Z,93.89
2017-04-22T00:23:46.939Z,92.94
2017-04-22T00:24:55.903Z,93.7
2017-04-22T00:26:05.230Z,92.94
2017-04-22T00:27:14.176Z,92.94
2017-04-22T00:28:23.426Z,93.13
2017-04-22T00:29:32.376Z,91.8
2017-04-22T00:30:41.327Z,92.08
2017-04-22T00:31:50.363Z,92.94
2017-04-22T00:32:59.311Z,91.13
2017-04-22T00:34:08.601Z,91.32
2017-04-22T00:35:17.551Z,91.42
2017-04-22T00:36:26.601Z,91.42
2017-04-22T00:37:35.560Z,90.66
2017-04-22T00:38:44.507Z,90.47
2017-04-22T00:39:53.755Z,91.75
2017-04-22T00:41:02.786Z,92.89
2017-04-22T00:42:11.745Z,92.7
2017-04-22T00:43:20.692Z,92.41
2017-04-22T00:44:29.639Z,91.94
2017-04-22T00:45:38.838Z,91.94
2017-04-22T00:46:47.789Z,92.03
2017-04-22T00:47:56.734Z,92.89
2017-04-22T00:49:05.682Z,92.99
2017-04-22T00:50:14.634Z,93.08
2017-04-22T00:51:23.832Z,92.03
2017-04-22T00:52:32.809Z,92.89
2017-04-22T00:53:42.318Z,93.27
2017-04-22T00:54:51.267Z,92.7
2017-04-22T00:56:00.265Z,93.08
2017-04-22T00:57:09.458Z,92.8
2017-04-22T00:58:19.163Z,93.55
2017-04-22T00:59:28.237Z,93.55
2017-04-22T01:00:37.371Z,94.32
2017-04-22T01:01:46.411Z,93.37
2017-04-22T01:02:55.608Z,93.46
2017-04-22T01:04:04.647Z,93.55
2017-04-22T01:05:13.601Z,93.94
2017-04-22T01:06:22.547Z,93.37
2017-04-22T01:07:31.507Z,93.37
2017-04-22T01:08:40.704Z,92.7
2017-04-22T01:09:49.653Z,91.66
2017-04-22T01:10:58.600Z,91.66
2017-04-22T01:12:07.547Z,91.08
2017-04-22T01:13:16.495Z,92.13
2017-04-22T01:14:25.702Z,91.75
2017-04-22T01:15:34.650Z,92.8
2017-04-22T01:16:43.596Z,92.41
2017-04-22T01:17:52.545Z,91.47
2017-04-22T01:19:01.491Z,92.37
2017-04-22T01:20:10.746Z,92.41
2017-04-22T01:21:19.723Z,91.33
2017-04-22T01:22:28.759Z,90.23
2017-04-22T01:23:37.709Z,91.04
2017-04-22T01:24:46.658Z,91.8
2017-04-22T01:25:55.908Z,91.23
2017-04-22T01:27:05.188Z,92.85
2017-04-22T01:28:14.152Z,92.27
2017-04-22T01:29:23.103Z,92.66
2017-04-22T01:30:32.055Z,93.13
2017-04-22T01:31:41.298Z,93.04
2017-04-22T01:32:50.248Z,93.41
2017-04-22T01:33:59.201Z,93.13
2017-04-22T01:35:08.240Z,93.41
2017-04-22T01:36:17.189Z,92.56
2017-04-22T01:37:26.448Z,92.94
2017-04-22T01:38:35.491Z,92.56
2017-04-22T01:39:44.448Z,92.85
2017-04-22T01:40:53.406Z,92.66
2017-04-22T01:42:02.441Z,92.85
2017-04-22T01:43:11.639Z,93.41
2017-04-22T01:44:20.589Z,92.66
2017-04-22T01:45:29.622Z,93.04
2017-04-22T01:46:38.567Z,92.85
2017-04-22T01:47:47.527Z,92.66
2017-04-22T01:48:56.727Z,93.32
2017-04-22T01:50:05.684Z,94.27
2017-04-22T01:51:14.631Z,94.08
2017-04-22T01:52:23.581Z,93.13
2017-04-22T01:53:32.847Z,92.94
2017-04-22T01:54:42.044Z,91.13
2017-04-22T01:55:51.000Z,92.56
2017-04-22T01:57:00.040Z,92.27
2017-04-22T01:58:08.990Z,91.99
2017-04-22T01:59:17.942Z,90
2017-04-22T02:00:27.173Z,90.09
2017-04-22T02:01:36.125Z,91.23
2017-04-22T02:02:45.076Z,89.42
2017-04-22T02:03:54.026Z,91.13
2017-04-22T02:05:02.984Z,92.37
2017-04-22T02:06:12.513Z,91.89
2017-04-22T02:07:21.462Z,91.23
2017-04-22T02:08:30.406Z,90.94
2017-04-22T02:09:39.348Z,91.71
2017-04-22T02:10:48.302Z,92.56
2017-04-22T02:11:57.499Z,92.37
2017-04-22T02:13:06.469Z,92.37
2017-04-22T02:14:15.416Z,91.99
2017-04-22T02:15:24.373Z,91.89
2017-04-22T02:16:33.327Z,91.61
2017-04-22T02:17:42.918Z,91.71
2017-04-22T02:18:51.866Z,92.37
2017-04-22T02:20:00.972Z,92.56
2017-04-22T02:21:09.971Z,92.85
2017-04-22T02:22:18.919Z,92.18
2017-04-22T02:23:28.257Z,91.13
2017-04-22T02:24:37.645Z,92.27
2017-04-22T02:25:46.770Z,91.04
2017-04-22T02:26:55.721Z,91.61
2017-04-22T02:28:04.666Z,91.23
2017-04-22T02:29:13.869Z,91.61
2017-04-22T02:30:22.826Z,92.37
2017-04-22T02:31:31.775Z,92.37
2017-04-22T02:32:40.730Z,92.46
2017-04-22T02:33:50.004Z,91.89
2017-04-22T02:34:59.343Z,92.75
2017-04-22T02:36:08.289Z,93.51
2017-04-22T02:37:17.240Z,93.04
2017-04-22T02:38:26.193Z,93.89
2017-04-22T02:39:35.137Z,94.08
2017-04-22T02:40:44.997Z,93.13
2017-04-22T02:41:54.038Z,92.56
2017-04-22T02:43:02.993Z,92.85
2017-04-22T02:44:11.963Z,92.85
2017-04-22T02:45:20.924Z,92.85
2017-04-22T02:46:30.123Z,93.13
2017-04-22T02:47:39.069Z,93.23
2017-04-22T02:48:48.097Z,93.89
2017-04-22T02:49:57.054Z,93.23
2017-04-22T02:51:06.098Z,93.7
2017-04-22T02:52:15.299Z,94.08
2017-04-22T02:53:24.248Z,94.27
2017-04-22T02:54:33.528Z,93.7
2017-04-22T02:55:42.473Z,93.51
2017-04-22T02:56:51.423Z,92.85
2017-04-22T02:58:00.625Z,93.13
2017-04-22T02:59:09.577Z,93.13
2017-04-22T03:00:18.528Z,93.23
2017-04-22T03:01:27.644Z,92.56
2017-04-22T03:02:36.595Z,92.85
2017-04-22T03:03:45.868Z,92.85
2017-04-22T03:04:55.145Z,93.32
2017-04-22T03:06:04.101Z,92.46
2017-04-22T03:07:13.048Z,92.08
2017-04-22T03:08:21.995Z,92.46
2017-04-22T03:09:31.193Z,92.18
2017-04-22T03:10:40.140Z,92.66
2017-04-22T03:11:49.087Z,92.37
2017-04-22T03:12:58.381Z,92.66
2017-04-22T03:14:07.329Z,92.56
2017-04-22T03:15:16.544Z,91.13
2017-04-22T03:16:25.814Z,90.19
2017-04-22T03:17:34.759Z,91.23
2017-04-22T03:18:43.713Z,91.89
2017-04-22T03:19:52.659Z,92.75
2017-04-22T03:21:01.910Z,92.75
2017-04-22T03:22:10.888Z,91.33
2017-04-22T03:23:19.833Z,90.56
2017-04-22T03:24:28.782Z,90.66
2017-04-22T03:25:38.056Z,91.09
2017-04-22T03:26:47.578Z,92.04
2017-04-22T03:27:56.523Z,92.51
2017-04-22T03:29:05.475Z,91.04
2017-04-22T03:30:14.616Z,91.13
2017-04-22T03:31:23.652Z,90.42
2017-04-22T03:32:32.899Z,91.28
2017-04-22T03:33:41.844Z,91.19
2017-04-22T03:34:50.795Z,90.9
2017-04-22T03:35:59.745Z,91.66
2017-04-22T03:37:08.697Z,91.94
2017-04-22T03:38:18.033Z,91.94
2017-04-22T03:39:26.989Z,91.19
2017-04-22T03:40:36.021Z,91.38
2017-04-22T03:41:44.969Z,91.75
2017-04-22T03:42:53.918Z,89.95
2017-04-22T03:44:03.121Z,89.38
2017-04-22T03:45:12.068Z,90.05
2017-04-22T03:46:21.121Z,90.42
2017-04-22T03:47:30.069Z,90.71
2017-04-22T03:48:39.048Z,91.28
2017-04-22T03:49:48.245Z,91.09
2017-04-22T03:50:57.188Z,91.66
2017-04-22T03:52:06.130Z,91.19
2017-04-22T03:53:15.076Z,89.57
2017-04-22T03:54:24.027Z,88.9
2017-04-22T03:55:33.254Z,89.19
2017-04-22T03:56:42.199Z,89.67
2017-04-22T03:57:51.147Z,90.33
2017-04-22T03:59:00.178Z,89.28
2017-04-22T04:00:09.126Z,90.05
2017-04-22T04:01:18.334Z,90.23
2017-04-22T04:02:27.282Z,90.52
2017-04-22T04:03:36.226Z,90.23
2017-04-22T04:04:45.174Z,90.61
2017-04-22T04:05:54.125Z,90.61
2017-04-22T04:07:03.325Z,91.28
2017-04-22T04:08:12.366Z,90.42
2017-04-22T04:09:21.358Z,88.71
2017-04-22T04:10:30.303Z,89.19
2017-04-22T04:11:39.245Z,89.28
2017-04-22T04:12:48.497Z,89.86
2017-04-22T04:13:57.451Z,90.61
2017-04-22T04:15:06.400Z,89.47
2017-04-22T04:16:15.344Z,88.9
2017-04-22T04:17:24.623Z,89.76
2017-04-22T04:18:33.816Z,90.42
2017-04-22T04:19:43.183Z,90.9
2017-04-22T04:20:52.129Z,90.42
2017-04-22T04:22:01.083Z,90.42
2017-04-22T04:23:10.029Z,90.33
2017-04-22T04:24:19.229Z,90.99
2017-04-22T04:25:28.184Z,91.09
2017-04-22T04:26:37.135Z,90.9
2017-04-22T04:27:46.170Z,90.33
2017-04-22T04:28:55.118Z,90.42
2017-04-22T04:30:04.317Z,88.05
2017-04-22T04:31:13.262Z,87.76
2017-04-22T04:32:22.209Z,87.95
2017-04-22T04:33:31.245Z,88.34
2017-04-22T04:34:40.193Z,87.95
2017-04-22T04:35:49.444Z,87.86
2017-04-22T04:36:58.394Z,87.95
2017-04-22T04:38:07.545Z,87.67
2017-04-22T04:39:16.496Z,88.34
2017-04-22T04:40:25.465Z,87.95
2017-04-22T04:41:34.713Z,87.86
2017-04-22T04:42:43.688Z,88.15
2017-04-22T04:43:52.636Z,88.53
2017-04-22T04:45:01.583Z,88.62
2017-04-22T04:46:10.536Z,89.57
2017-04-22T04:47:19.741Z,88.34
2017-04-22T04:48:28.722Z,89.19
2017-04-22T04:49:37.991Z,89.61
2017-04-22T04:50:46.935Z,89.52
2017-04-22T04:51:55.884Z,88.95
2017-04-22T04:53:06.839Z,88.47
2017-04-22T04:54:15.783Z,89.19
2017-04-22T04:55:24.816Z,88
2017-04-22T04:56:33.796Z,87.9
2017-04-22T04:57:42.766Z,88
2017-04-22T04:58:51.961Z,88.95
2017-04-22T05:00:01.672Z,89.33
2017-04-22T05:01:10.942Z,90.19
2017-04-22T05:02:19.887Z,90.56
2017-04-22T05:03:29.038Z,90.47
2017-04-22T05:04:38.246Z,91.23
2017-04-22T05:05:47.218Z,89.42
2017-04-22T05:06:56.164Z,89.23
2017-04-22T05:08:05.109Z,89.33
2017-04-22T05:09:14.062Z,87.24
2017-04-22T05:10:23.261Z,86.1
2017-04-22T05:11:32.209Z,86.67
2017-04-22T05:12:41.248Z,87.43
2017-04-22T05:13:50.282Z,87.43
2017-04-22T05:14:59.314Z,87.34
2017-04-22T05:16:08.571Z,87.05
2017-04-22T05:17:17.529Z,86.57
2017-04-22T05:18:26.519Z,86.19
2017-04-22T05:19:35.467Z,86.86
2017-04-22T05:20:44.680Z,87.81
2017-04-22T05:21:53.929Z,87.24
2017-04-22T05:23:02.884Z,87.05
2017-04-22T05:24:11.842Z,86.47
2017-04-22T05:25:20.790Z,84.77
2017-04-22T05:26:29.734Z,84.77
2017-04-22T05:27:38.978Z,84.95
2017-04-22T05:28:48.017Z,87.05
2017-04-22T05:29:57.289Z,86.19
2017-04-22T05:31:06.247Z,85.15
2017-04-22T05:32:15.194Z,84.95
2017-04-22T05:33:24.716Z,85.91
2017-04-22T05:34:33.670Z,84.67
2017-04-22T05:35:42.638Z,85.34
2017-04-22T05:36:51.582Z,86.76
2017-04-22T05:38:00.863Z,86
2017-04-22T05:39:10.058Z,85.81
2017-04-22T05:40:19.091Z,85.34
2017-04-22T05:41:28.039Z,84.48
2017-04-22T05:42:36.987Z,84.62
2017-04-22T05:43:46.024Z,84.81
2017-04-22T05:44:55.229Z,85.19
2017-04-22T05:46:04.388Z,85
2017-04-22T05:47:13.368Z,84.14
2017-04-22T05:48:22.674Z,83.76
2017-04-22T05:49:31.630Z,84.14
2017-04-22T05:50:40.882Z,84.72
2017-04-22T05:51:49.830Z,80.82
2017-04-22T05:52:58.782Z,80.63
2017-04-22T05:54:07.728Z,82.71
2017-04-22T05:55:16.684Z,82.68
2017-04-22T05:56:25.893Z,81.2
2017-04-22T05:57:34.840Z,81.1
2017-04-22T05:58:43.791Z,81.38
2017-04-22T05:59:53.073Z,81.2
2017-04-22T06:01:02.026Z,83.1
2017-04-22T06:02:11.233Z,83
2017-04-22T06:03:20.189Z,81.58
2017-04-22T06:04:29.144Z,83
2017-04-22T06:05:38.089Z,83.67
2017-04-22T06:06:47.035Z,82.71
2017-04-22T06:07:56.281Z,81.38
2017-04-22T06:09:05.227Z,81.48
2017-04-22T06:10:14.176Z,82.62
2017-04-22T06:11:23.126Z,83.67
2017-04-22T06:12:32.075Z,83.58
2017-04-22T06:13:41.327Z,82.05
2017-04-22T06:14:50.605Z,81.96
2017-04-22T06:15:59.640Z,79.86
2017-04-22T06:17:08.596Z,80.72
2017-04-22T06:18:17.545Z,82.91
2017-04-22T06:19:27.126Z,82.34
2017-04-22T06:20:36.074Z,81.52
2017-04-22T06:21:45.020Z,82.24
2017-04-22T06:22:54.052Z,81.62
2017-04-22T06:24:03.082Z,79.33
2017-04-22T06:25:12.473Z,79.62
2017-04-22T06:26:21.424Z,79.62
2017-04-22T06:27:30.677Z,79.24
2017-04-22T06:28:39.626Z,79.14
2017-04-22T06:29:48.581Z,78.38
2017-04-22T06:30:57.834Z,76.96
2017-04-22T06:32:06.788Z,76.39
2017-04-22T06:33:15.739Z,77.15
2017-04-22T06:34:24.688Z,76.01
2017-04-22T06:35:33.642Z,74.77
2017-04-22T06:36:42.841Z,74.58
2017-04-22T06:37:51.788Z,74.87
2017-04-22T06:39:00.736Z,78
2017-04-22T06:40:09.686Z,77.81
2017-04-22T06:41:18.628Z,80.1
2017-04-22T06:42:27.878Z,77.43
2017-04-22T06:43:36.829Z,77.62
2017-04-22T06:44:45.780Z,78.48
2017-04-22T06:45:54.730Z,76.1
2017-04-22T06:47:04.012Z,73.53
2017-04-22T06:48:13.470Z,74.77
2017-04-22T06:49:22.474Z,73.91
2017-04-22T06:50:31.546Z,75.24
2017-04-22T06:51:40.496Z,74.48
2017-04-22T06:52:49.445Z,75.43
2017-04-22T06:53:58.641Z,76.57
2017-04-22T06:55:07.603Z,77.15
2017-04-22T06:56:16.556Z,75.34
2017-04-22T06:57:25.502Z,74.48
2017-04-22T06:58:34.451Z,75.38
2017-04-22T06:59:43.653Z,76.14
2017-04-22T07:00:52.597Z,73.95
2017-04-22T07:02:01.550Z,73.38
2017-04-22T07:03:10.499Z,74.43
2017-04-22T07:04:19.450Z,74.9
2017-04-22T07:05:28.707Z,73.19
2017-04-22T07:06:37.657Z,73.57
2017-04-22T07:07:46.609Z,75.85
2017-04-22T07:08:55.563Z,75.85
2017-04-22T07:10:04.513Z,73.38
2017-04-22T07:11:14.040Z,72.62
2017-04-22T07:12:22.987Z,70.62
2017-04-22T07:13:31.931Z,70.52
2017-04-22T07:14:40.889Z,74.04
2017-04-22T07:15:49.835Z,73.57
2017-04-22T07:16:59.086Z,75.38
2017-04-22T07:18:08.052Z,73.57
2017-04-22T07:19:17.015Z,70.33
2017-04-22T07:20:25.974Z,73.38
2017-04-22T07:21:34.936Z,76.61
2017-04-22T07:22:44.181Z,73.19
2017-04-22T07:23:53.152Z,68.37
2017-04-22T07:25:02.116Z,69.19
2017-04-22T07:26:11.182Z,70.27
2017-04-22T07:27:20.227Z,68.75
2017-04-22T07:28:29.696Z,67.29
2017-04-22T07:29:38.646Z,67.38
2017-04-22T07:30:47.595Z,68.71
2017-04-22T07:31:56.541Z,71.28
2017-04-22T07:33:05.489Z,73.22
2017-04-22T07:34:14.837Z,73.22
2017-04-22T07:35:23.789Z,71.32
2017-04-22T07:36:32.737Z,70.27
2017-04-22T07:37:42.014Z,70.56
2017-04-22T07:38:50.965Z,70.65
2017-04-22T07:40:00.498Z,73.8
2017-04-22T07:41:09.472Z,74.75
2017-04-22T07:42:18.415Z,72.75
2017-04-22T07:43:27.367Z,70.21
2017-04-22T07:44:36.318Z,69.26
2017-04-22T07:45:45.566Z,66.66
2017-04-22T07:46:54.512Z,66.56
2017-04-22T07:48:03.474Z,63.51
2017-04-22T07:49:12.422Z,64.84
2017-04-22T07:50:21.370Z,66.56
2017-04-22T07:51:30.619Z,69.23
2017-04-22T07:52:39.895Z,66.56
2017-04-22T07:53:48.849Z,64.65
2017-04-22T07:54:57.796Z,65.89
2017-04-22T07:56:06.744Z,65.7
2017-04-22T07:57:15.948Z,65.61
2017-04-22T07:58:24.905Z,66.56
2017-04-22T07:59:34.179Z,65.73
2017-04-22T08:00:43.128Z,64.21
2017-04-22T08:01:52.402Z,66.31
2017-04-22T08:03:01.654Z,66.11
2017-04-22T08:04:10.613Z,64.02
2017-04-22T08:05:19.573Z,66.21
2017-04-22T08:06:28.543Z,68.98
2017-04-22T08:07:37.490Z,68.88
2017-04-22T08:08:46.695Z,68.02
2017-04-22T08:09:55.653Z,69.26
2017-04-22T08:11:04.603Z,68.4
2017-04-22T08:12:13.556Z,66.69
2017-04-22T08:13:22.510Z,67.93
2017-04-22T08:14:32.042Z,67.93
2017-04-22T08:15:41.317Z,66.69
2017-04-22T08:16:50.447Z,66.5
2017-04-22T08:17:59.394Z,68.98
2017-04-22T08:19:08.345Z,68.02
2017-04-22T08:20:17.554Z,66.78
2017-04-22T08:21:26.504Z,69.26
2017-04-22T08:22:35.451Z,70.37
2017-04-22T08:23:44.406Z,68.78
2017-04-22T08:24:53.362Z,67.26
2017-04-22T08:26:02.569Z,65.83
2017-04-22T08:27:11.521Z,64.02
2017-04-22T08:28:20.479Z,64.18
2017-04-22T08:29:29.435Z,64.65
2017-04-22T08:30:38.472Z,65.61
2017-04-22T08:31:47.675Z,65.8
2017-04-22T08:32:56.911Z,67.7
2017-04-22T08:34:06.232Z,69.13
2017-04-22T08:35:15.188Z,70.27
2017-04-22T08:36:24.138Z,72.17
2017-04-22T08:37:33.392Z,72.37
2017-04-22T08:38:42.346Z,70.14
2017-04-22T08:39:51.297Z,73.66
2017-04-22T08:41:00.581Z,76.14
2017-04-22T08:42:09.531Z,77.09
2017-04-22T08:43:18.797Z,77.66
2017-04-22T08:44:27.749Z,79.85
2017-04-22T08:45:36.707Z,79.94
2017-04-22T08:46:54.203Z,77.19
2017-04-22T08:48:03.158Z,77.62
2017-04-22T08:49:12.363Z,75.81
2017-04-22T08:50:21.313Z,75.34
2017-04-22T08:51:30.273Z,76.2
2017-04-22T08:52:39.222Z,77.91
2017-04-22T08:53:48.199Z,76.76
2017-04-22T08:54:58.107Z,75.24
2017-04-22T08:56:07.060Z,76.96
2017-04-22T08:57:16.011Z,77.15
2017-04-22T08:58:24.965Z,76.01
2017-04-22T08:59:33.922Z,77.05
2017-04-22T09:00:43.134Z,77.15
2017-04-22T09:01:52.085Z,74.39
2017-04-22T09:03:01.036Z,73.91
2017-04-22T09:04:09.988Z,73.1
2017-04-22T09:05:18.941Z,72.9
2017-04-22T09:06:28.137Z,73.47
2017-04-22T09:07:37.082Z,75.05
2017-04-22T09:08:46.038Z,73.85
2017-04-22T09:09:54.989Z,72.52
2017-04-22T09:11:03.948Z,73.72
2017-04-22T09:12:13.144Z,71.38
2017-04-22T09:13:22.096Z,66.81
2017-04-22T09:14:31.053Z,66.81
2017-04-22T09:15:40.008Z,65.38
2017-04-22T09:16:48.957Z,64.34
2017-04-22T09:17:58.157Z,63.57
2017-04-22T09:19:07.109Z,64.72
2017-04-22T09:20:16.059Z,68.21
2017-04-22T09:21:25.011Z,66.97
2017-04-22T09:22:33.959Z,67.07
2017-04-22T09:23:43.209Z,67.07
2017-04-22T09:24:52.161Z,65.92
2017-04-22T09:26:01.111Z,65.16
2017-04-22T09:27:10.388Z,66.3
2017-04-22T09:28:19.336Z,67.07
2017-04-22T09:29:28.591Z,67.54
2017-04-22T09:30:37.541Z,68.87
2017-04-22T09:31:46.486Z,70.07
2017-04-22T09:32:55.437Z,70.3
2017-04-22T09:34:04.386Z,69.15
2017-04-22T09:35:13.628Z,69.63
2017-04-22T09:36:22.900Z,70.2
2017-04-22T09:37:31.846Z,68.96
2017-04-22T09:38:40.801Z,70.1
2017-04-22T09:39:49.753Z,69.73
2017-04-22T09:40:58.959Z,68.21
2017-04-22T09:42:07.906Z,66.59
2017-04-22T09:43:16.852Z,67.63
2017-04-22T09:44:25.804Z,69.98
2017-04-22T09:45:34.755Z,70.77
2017-04-22T09:46:43.961Z,70.2
2017-04-22T09:47:52.922Z,70.01
2017-04-22T09:49:01.879Z,71.91
2017-04-22T09:50:10.834Z,74.01
2017-04-22T09:51:19.790Z,73.66
2017-04-22T09:52:29.004Z,74.24
2017-04-22T09:53:37.952Z,74.99
2017-04-22T09:54:46.904Z,76.23
2017-04-22T09:55:55.859Z,76.27
2017-04-22T09:57:04.809Z,70.18
2017-04-22T09:58:14.008Z,70.78
2017-04-22T09:59:22.966Z,73.93
2017-04-22T10:00:31.964Z,74.98
2017-04-22T10:01:40.922Z,72.02
2017-04-22T10:02:49.911Z,69.64
2017-04-22T10:03:59.225Z,66.88
2017-04-22T10:05:08.181Z,65.45
2017-04-22T10:06:17.141Z,67.45
2017-04-22T10:07:26.101Z,68.88
2017-04-22T10:08:35.052Z,63.26
2017-04-22T10:09:44.307Z,62.12
2017-04-22T10:10:53.281Z,62.59
2017-04-22T10:12:02.236Z,63.39
2017-04-22T10:13:11.189Z,60.49
2017-04-22T10:14:20.139Z,59.57
2017-04-22T10:15:29.393Z,58.87
2017-04-22T10:16:38.432Z,59.92
2017-04-22T10:17:47.474Z,60.3
2017-04-22T10:18:56.422Z,61.45
2017-04-22T10:20:05.373Z,63.92
2017-04-22T10:21:14.575Z,62.88
2017-04-22T10:22:23.531Z,63.54
2017-04-22T10:23:32.489Z,60.78
2017-04-22T10:24:41.440Z,59.92
2017-04-22T10:25:50.395Z,61.35
2017-04-22T10:26:59.600Z,60.3
2017-04-22T10:28:08.551Z,60.78
2017-04-22T10:29:17.529Z,65.45
2017-04-22T10:30:26.577Z,63.35
2017-04-22T10:31:35.587Z,62.12
2017-04-22T10:32:44.792Z,61.8
2017-04-22T10:33:53.769Z,62.75
2017-04-22T10:35:03.067Z,64.37
2017-04-22T10:36:12.020Z,67.83
2017-04-22T10:37:20.980Z,68.3
2017-04-22T10:38:30.234Z,66.4
2017-04-22T10:39:39.190Z,68.82
2017-04-22T10:40:48.143Z,65.48
2017-04-22T10:41:57.098Z,64.91
2017-04-22T10:43:06.053Z,61.19
2017-04-22T10:44:15.263Z,59.86
2017-04-22T10:45:24.214Z,58.43
2017-04-22T10:46:33.162Z,58.91
2017-04-22T10:47:42.114Z,59.19
2017-04-22T10:48:51.066Z,57.57
2017-04-22T10:50:00.271Z,55.95
2017-04-22T10:51:09.543Z,60.43
2017-04-22T10:52:18.492Z,62.15
2017-04-22T10:53:27.441Z,63.39
2017-04-22T10:54:36.398Z,66.15
2017-04-22T10:55:45.652Z,65.48
2017-04-22T10:56:54.688Z,60.81
2017-04-22T10:58:03.721Z,59.48
2017-04-22T10:59:12.685Z,56.81
2017-04-22T11:00:21.655Z,58.14
2017-04-22T11:01:30.915Z,58.33
2017-04-22T11:02:39.865Z,57.67
2017-04-22T11:03:48.816Z,59
2017-04-22T11:04:57.860Z,58.04
2017-04-22T11:06:06.838Z,57.07
2017-04-22T11:07:16.094Z,61.54
2017-04-22T11:08:25.052Z,60.78
2017-04-22T11:09:34.003Z,58.91
2017-04-22T11:10:42.961Z,56.3
2017-04-22T11:11:51.921Z,59.57
2017-04-22T11:13:01.129Z,58.81
2017-04-22T11:14:10.091Z,59.09
2017-04-22T11:15:19.047Z,58.43
2017-04-22T11:16:27.994Z,59.76
2017-04-22T11:17:37.030Z,60.24
2017-04-22T11:18:46.239Z,58.14
2017-04-22T11:19:55.194Z,61.38
2017-04-22T11:21:04.148Z,59.38
2017-04-22T11:22:13.425Z,59.09
2017-04-22T11:23:22.377Z,58.07
2017-04-22T11:24:31.632Z,57.7
2017-04-22T11:25:40.585Z,59.31
2017-04-22T11:26:49.539Z,57.6
2017-04-22T11:27:58.809Z,57.41
2017-04-22T11:29:07.762Z,57.98
2017-04-22T11:30:17.024Z,56.07
2017-04-22T11:31:25.977Z,58.36
2017-04-22T11:32:35.283Z,58.26
2017-04-22T11:33:44.563Z,56.84
2017-04-22T11:34:53.515Z,55.79
2017-04-22T11:36:02.719Z,51.12
2017-04-22T11:37:11.665Z,53.59
2017-04-22T11:38:20.616Z,54.17
2017-04-22T11:39:29.570Z,52.26
2017-04-22T11:40:38.520Z,52.16
2017-04-22T11:41:47.767Z,52.16
2017-04-22T11:42:56.729Z,53.59
2017-04-22T11:44:05.680Z,52.83
2017-04-22T11:45:14.633Z,52.07
2017-04-22T11:46:23.720Z,51.59
2017-04-22T11:47:33.309Z,55.12
2017-04-22T11:48:42.271Z,51.21
2017-04-22T11:49:51.223Z,54.38
2017-04-22T11:51:00.177Z,51.31
2017-04-22T11:52:09.135Z,52.38
2017-04-22T11:53:18.487Z,53.05
2017-04-22T11:54:27.446Z,52.76
2017-04-22T11:55:36.510Z,53.62
2017-04-22T11:56:45.469Z,50.02
2017-04-22T11:57:54.422Z,48.02
2017-04-22T11:59:03.671Z,45.63
2017-04-22T12:00:12.630Z,47.82
2017-04-22T12:01:21.582Z,47.82
2017-04-22T12:02:30.609Z,48.11
2017-04-22T12:03:39.567Z,46.77
2017-04-22T12:04:48.970Z,46.56
2017-04-22T12:05:58.247Z,47.8
2017-04-22T12:07:07.195Z,45.61
2017-04-22T12:08:16.147Z,46.66
2017-04-22T12:09:25.102Z,47.32
2017-04-22T12:10:34.325Z,46.66
2017-04-22T12:11:43.277Z,47.42
2017-04-22T12:12:52.238Z,46.37
2017-04-22T12:14:01.188Z,46.37
2017-04-22T12:15:10.144Z,49.42
2017-04-22T12:16:19.402Z,46.47
2017-04-22T12:17:28.354Z,46.47
2017-04-22T12:18:37.308Z,47.61
2017-04-22T12:19:46.259Z,47.71
2017-04-22T12:20:55.219Z,46.56
2017-04-22T12:22:04.418Z,47.52
2017-04-22T12:23:13.369Z,47.89
2017-04-22T12:24:22.331Z,46.75
2017-04-22T12:25:31.302Z,46.84
2017-04-22T12:26:40.255Z,48.08
2017-04-22T12:27:49.508Z,48.85
2017-04-22T12:28:58.466Z,46.37
2017-04-22T12:30:07.418Z,49.13
2017-04-22T12:31:16.390Z,47.92
2017-04-22T12:32:25.352Z,48.39
2017-04-22T12:33:34.605Z,50.69
2017-04-22T12:34:43.564Z,51.26
2017-04-22T12:35:52.535Z,49.54
2017-04-22T12:37:01.494Z,48.78
2017-04-22T12:38:10.443Z,47.63
2017-04-22T12:39:19.723Z,47.44
2017-04-22T12:40:28.686Z,47.92
2017-04-22T12:41:37.644Z,48.97
2017-04-22T12:42:46.594Z,49.64
2017-04-22T12:43:55.559Z,49.26
2017-04-22T12:45:04.805Z,50.59
2017-04-22T12:46:13.755Z,50.12
2017-04-22T12:47:22.745Z,47.63
2017-04-22T12:48:31.696Z,46.77
2017-04-22T12:49:40.649Z,47.25
2017-04-22T12:50:49.855Z,47.13
2017-04-22T12:51:58.805Z,47.54
2017-04-22T12:53:07.845Z,46.47
2017-04-22T12:54:16.806Z,47.42
2017-04-22T12:55:25.763Z,47.8
2017-04-22T12:56:35.024Z,47.61
2017-04-22T12:57:43.977Z,47.13
2017-04-22T12:58:53.084Z,46.75
2017-04-22T13:00:02.279Z,47.52
2017-04-22T13:01:11.364Z,47.8
2017-04-22T13:02:20.888Z,47.89
2017-04-22T13:03:30.003Z,46.75
2017-04-22T13:04:38.963Z,47.42
2017-04-22T13:05:47.913Z,46.37
2017-04-22T13:06:56.863Z,46.75
2017-04-22T13:08:06.117Z,47.32
2017-04-22T13:09:15.191Z,47.42
2017-04-22T13:10:24.266Z,46.56
2017-04-22T13:11:33.340Z,46.84
2017-04-22T13:12:42.294Z,47.99
2017-04-22T13:13:51.521Z,48.75
2017-04-22T13:15:00.638Z,48.75
2017-04-22T13:16:09.693Z,47.99
2017-04-22T13:17:18.646Z,47.42
2017-04-22T13:18:27.597Z,47.42
2017-04-22T13:19:36.890Z,46.56
2017-04-22T13:20:45.906Z,47.71
2017-04-22T13:21:54.858Z,48.85
2017-04-22T13:23:03.818Z,49.13
2017-04-22T13:24:12.778Z,49.52
2017-04-22T13:25:22.004Z,48.57
2017-04-22T13:26:30.962Z,49.04
2017-04-22T13:27:39.917Z,49.42
2017-04-22T13:28:48.874Z,49.42
2017-04-22T13:29:57.828Z,48.75
2017-04-22T13:31:07.166Z,48.28
2017-04-22T13:32:16.145Z,48.66
2017-04-22T13:33:25.095Z,48.85
2017-04-22T13:34:34.045Z,48.66
2017-04-22T13:35:43.009Z,48.75
2017-04-22T13:36:52.269Z,48.75
2017-04-22T13:38:01.220Z,48.08
2017-04-22T13:39:10.172Z,47.99
2017-04-22T13:40:19.226Z,47.89
2017-04-22T13:41:28.313Z,47.89
2017-04-22T13:42:37.582Z,47.61
2017-04-22T13:43:46.539Z,47.99
2017-04-22T13:44:55.488Z,47.42
2017-04-22T13:46:04.443Z,47.71
2017-04-22T13:47:13.396Z,47.42
2017-04-22T13:48:22.607Z,46.75
2017-04-22T13:49:31.555Z,46.66
2017-04-22T13:50:40.519Z,46.84
2017-04-22T13:51:49.496Z,47.42
2017-04-22T13:52:58.447Z,46.77
2017-04-22T13:54:07.710Z,47.06
2017-04-22T13:55:16.670Z,47.16
2017-04-22T13:56:25.630Z,46.87
2017-04-22T13:57:34.576Z,46.77
2017-04-22T13:58:43.530Z,46.3
2017-04-22T13:59:52.795Z,45.72
2017-04-22T14:01:01.750Z,45.43
2017-04-22T14:02:10.705Z,45.7
2017-04-22T14:03:19.655Z,45.72
2017-04-22T14:04:28.608Z,46.11
2017-04-22T14:05:37.860Z,46.18
2017-04-22T14:06:46.813Z,46.37
2017-04-22T14:07:55.763Z,46.56
2017-04-22T14:09:04.713Z,46.56
2017-04-22T14:10:13.990Z,46.75
2017-04-22T14:11:23.263Z,47.23
2017-04-22T14:12:32.303Z,48.83
2017-04-22T14:13:41.274Z,50.83
2017-04-22T14:14:50.324Z,52.26
2017-04-22T14:15:59.286Z,53.21
2017-04-22T14:17:08.485Z,53.66
2017-04-22T14:18:17.439Z,53.56
2017-04-22T14:19:26.396Z,54.61
2017-04-22T14:20:35.673Z,55.66
2017-04-22T14:21:44.621Z,57.38
2017-04-22T14:22:53.832Z,59
2017-04-22T14:24:02.784Z,59.19
2017-04-22T14:25:11.738Z,59.57
2017-04-22T14:26:20.691Z,59
2017-04-22T14:27:29.641Z,58.87
2017-04-22T14:28:38.899Z,58.72
2017-04-22T14:29:47.854Z,58.69
2017-04-22T14:30:56.807Z,58.02
2017-04-22T14:32:05.758Z,58.21
2017-04-22T14:33:14.709Z,58.04
2017-04-22T14:34:23.918Z,57.54
2017-04-22T14:35:32.871Z,57.54
2017-04-22T14:36:41.819Z,57.67
2017-04-22T14:37:50.800Z,57.38
2017-04-22T14:38:59.758Z,57
2017-04-22T14:40:08.973Z,57.19
2017-04-22T14:41:17.927Z,57.19
2017-04-22T14:42:26.923Z,56.9
2017-04-22T14:43:35.874Z,57.38
2017-04-22T14:44:45.161Z,57.48
2017-04-22T14:45:54.413Z,57.48
2017-04-22T14:47:03.364Z,57.67
2017-04-22T14:48:12.406Z,57.57
2017-04-22T14:49:21.359Z,57.57
2017-04-22T14:50:30.310Z,58.91
2017-04-22T14:51:39.586Z,59.38
2017-04-22T14:52:48.537Z,60.43